Time;durP1;ratioP1;P1;durP2;ratioP2;P2;SDS_P1;SDS_P2;PMS_P1;PMS_P2;Temp;Humidity;BMP_temperature;BMP_pressure;BME280_temperature;BME280_humidity;BME280_pressure;Samples;Min_cycle;Max_cycle;Signal;HPM_P1;HPM_P2
2023/12/06 00:02:03;;;;;;;44.30;28.13;;;4.80;99.90;;;;;;4956859;28;39369;-76
2023/12/06 00:04:30;;;;;;;34.80;25.43;;;4.90;99.90;;;;;;4967589;28;48375;-76
2023/12/06 00:06:56;;;;;;;34.67;24.40;;;4.80;99.90;;;;;;4961436;28;37333;-75
2023/12/06 00:09:25;;;;;;;32.87;24.00;;;4.80;99.90;;;;;;4954479;28;39109;-75
2023/12/06 00:11:51;;;;;;;38.80;25.90;;;4.90;99.90;;;;;;4940477;28;39504;-76
2023/12/06 00:14:17;;;;;;;42.00;25.37;;;4.90;99.90;;;;;;4958187;28;37703;-75
2023/12/06 00:16:43;;;;;;;33.23;23.07;;;4.90;99.90;;;;;;4947473;28;36380;-77
2023/12/06 00:19:09;;;;;;;33.10;24.07;;;4.90;99.90;;;;;;4967250;28;39806;-75
2023/12/06 00:21:35;;;;;;;34.30;24.87;;;4.90;99.90;;;;;;4948799;28;37522;-76
2023/12/06 00:24:04;;;;;;;36.87;24.93;;;4.90;99.90;;;;;;4964722;28;38650;-76
2023/12/06 00:26:30;;;;;;;34.03;23.70;;;4.90;99.90;;;;;;4959461;28;36578;-76
2023/12/06 00:28:56;;;;;;;36.10;25.60;;;4.90;99.90;;;;;;4969016;28;39162;-75
2023/12/06 00:31:26;;;;;;;35.70;25.00;;;4.90;99.90;;;;;;4966709;28;39242;-75
2023/12/06 00:33:52;;;;;;;35.13;25.50;;;4.90;99.90;;;;;;4948077;28;37740;-76
2023/12/06 00:36:18;;;;;;;32.33;22.90;;;5.00;99.90;;;;;;4949448;28;36420;-75
2023/12/06 00:38:44;;;;;;;34.60;23.50;;;5.00;99.90;;;;;;4955720;28;38042;-75
2023/12/06 00:41:10;;;;;;;37.30;24.67;;;5.00;99.90;;;;;;4948224;28;38591;-74
2023/12/06 00:43:36;;;;;;;34.40;23.47;;;5.00;99.90;;;;;;4959078;28;38023;-75
2023/12/06 00:46:03;;;;;;;38.70;27.13;;;5.00;99.90;;;;;;4967233;28;37857;-77
2023/12/06 00:48:29;;;;;;;43.93;26.97;;;5.00;99.90;;;;;;4945845;28;39398;-75
2023/12/06 00:50:56;;;;;;;40.30;26.00;;;5.10;99.90;;;;;;4950785;28;39269;-76
2023/12/06 00:53:22;;;;;;;35.40;24.57;;;5.00;99.90;;;;;;4953831;28;37521;-76
2023/12/06 00:55:48;;;;;;;37.70;25.40;;;5.00;99.90;;;;;;4946714;28;37970;-76
2023/12/06 00:58:14;;;;;;;34.00;25.07;;;5.00;99.90;;;;;;4955151;28;37403;-76
2023/12/06 01:00:40;;;;;;;33.20;23.33;;;5.00;99.90;;;;;;4947920;28;38663;-76
2023/12/06 01:03:06;;;;;;;28.20;21.67;;;5.00;99.90;;;;;;4951033;28;37297;-76
2023/12/06 01:05:32;;;;;;;31.40;21.27;;;5.00;99.90;;;;;;4953211;28;37038;-75
2023/12/06 01:07:59;;;;;;;33.93;22.53;;;5.00;99.90;;;;;;4971725;28;39504;-76
2023/12/06 01:10:25;;;;;;;44.37;25.77;;;5.00;99.90;;;;;;4971207;28;37838;-76
2023/12/06 01:12:51;;;;;;;36.40;24.67;;;5.00;99.90;;;;;;4950842;28;37897;-76
2023/12/06 01:15:17;;;;;;;31.47;22.77;;;5.00;99.90;;;;;;4969510;28;36453;-76
2023/12/06 01:17:46;;;;;;;26.37;21.10;;;5.10;99.90;;;;;;4952540;28;37853;-75
2023/12/06 01:20:15;;;;;;;32.57;24.10;;;5.10;99.90;;;;;;4958898;28;38057;-75
2023/12/06 01:22:47;;;;;;;32.23;22.83;;;5.10;99.90;;;;;;4975585;28;38677;-75
2023/12/06 01:25:13;;;;;;;36.25;25.35;;;5.10;99.90;;;;;;4952718;28;38047;-75
2023/12/06 01:27:39;;;;;;;32.70;23.00;;;5.20;99.90;;;;;;4954254;28;38533;-76
2023/12/06 01:30:06;;;;;;;33.37;23.47;;;5.20;99.90;;;;;;4975852;28;39652;-75
2023/12/06 01:32:38;;;;;;;34.67;24.50;;;5.20;99.90;;;;;;4976033;28;37643;-75
2023/12/06 01:35:05;;;;;;;37.30;24.25;;;5.20;99.90;;;;;;4952393;28;36544;-78
2023/12/06 01:37:31;;;;;;;34.60;22.87;;;5.20;99.90;;;;;;4964856;28;39372;-74
2023/12/06 01:39:57;;;;;;;31.23;22.13;;;5.20;99.90;;;;;;4952781;28;37827;-75
2023/12/06 01:42:26;;;;;;;29.27;21.53;;;5.30;99.90;;;;;;4956167;28;38919;-76
2023/12/06 01:44:52;;;;;;;23.17;18.33;;;5.20;99.90;;;;;;4971130;28;39862;-75
2023/12/06 01:47:20;;;;;;;31.20;20.73;;;5.20;99.90;;;;;;4971924;28;38972;-75
2023/12/06 01:49:47;;;;;;;28.27;17.87;;;5.20;99.90;;;;;;4946837;28;37981;-75
2023/12/06 01:52:16;;;;;;;22.33;16.13;;;5.30;99.90;;;;;;4967645;28;38397;-75
2023/12/06 01:54:43;;;;;;;21.73;14.73;;;5.40;99.90;;;;;;4968335;28;39010;-76
2023/12/06 01:57:10;;;;;;;24.60;16.43;;;5.40;99.90;;;;;;4971190;28;40553;-76
2023/12/06 01:59:38;;;;;;;23.60;16.50;;;5.30;99.90;;;;;;4932465;28;38609;-76
2023/12/06 02:02:05;;;;;;;22.20;14.10;;;5.40;99.90;;;;;;5409963;23;37623;-77
2023/12/06 02:04:33;;;;;;;21.30;16.40;;;5.40;99.90;;;;;;4937508;28;35527;-74
2023/12/06 02:06:59;;;;;;;23.13;15.93;;;5.40;99.90;;;;;;4934297;28;37536;-76
2023/12/06 02:09:29;;;;;;;23.03;16.13;;;5.40;99.90;;;;;;4957038;28;38539;-75
2023/12/06 02:11:59;;;;;;;21.80;15.97;;;5.40;99.90;;;;;;4949398;28;39159;-76
2023/12/06 02:14:25;;;;;;;27.60;16.90;;;5.40;99.90;;;;;;4955309;28;38506;-76
2023/12/06 02:16:51;;;;;;;23.77;15.73;;;5.40;99.90;;;;;;4947619;28;38872;-75
2023/12/06 02:19:24;;;;;;;20.97;13.57;;;5.40;99.90;;;;;;4941640;28;38313;-75
2023/12/06 02:21:51;;;;;;;18.50;13.17;;;5.40;99.90;;;;;;4941674;28;38146;-76
2023/12/06 02:24:18;;;;;;;17.13;12.23;;;5.50;99.90;;;;;;4945639;28;38103;-76
2023/12/06 02:26:45;;;;;;;16.97;11.80;;;5.50;99.90;;;;;;4947666;28;37898;-76
2023/12/06 02:29:11;;;;;;;16.10;10.27;;;5.60;99.90;;;;;;4939796;28;38901;-76
2023/12/06 02:31:37;;;;;;;19.50;9.77;;;5.60;99.90;;;;;;4936364;28;37653;-76
2023/12/06 02:34:11;;;;;;;13.83;9.53;;;5.60;99.90;;;;;;4957499;28;36925;-76
2023/12/06 02:36:39;;;;;;;14.27;10.07;;;5.70;99.90;;;;;;4958704;28;38638;-76
2023/12/06 02:39:06;;;;;;;16.27;10.97;;;5.70;99.90;;;;;;4953168;28;39300;-75
2023/12/06 02:41:34;;;;;;;18.77;11.83;;;5.70;99.90;;;;;;4954142;28;38504;-77
2023/12/06 02:44:03;;;;;;;16.37;12.30;;;5.70;99.90;;;;;;4936213;28;37141;-76
2023/12/06 02:46:33;;;;;;;25.90;15.03;;;5.70;99.90;;;;;;4956219;28;48665;-77
2023/12/06 02:48:59;;;;;;;19.37;13.63;;;5.70;99.90;;;;;;4939151;28;38971;-76
2023/12/06 02:51:25;;;;;;;22.67;15.00;;;5.60;99.90;;;;;;4941009;28;38603;-76
2023/12/06 02:53:54;;;;;;;19.37;13.40;;;5.60;99.90;;;;;;4942368;28;36597;-76
2023/12/06 02:56:21;;;;;;;22.40;13.70;;;5.60;99.90;;;;;;4933302;28;38135;-75
2023/12/06 02:58:47;;;;;;;24.07;17.47;;;5.60;99.90;;;;;;4961551;28;39214;-76
2023/12/06 03:01:13;;;;;;;21.33;14.53;;;5.50;99.90;;;;;;4948087;28;38801;-76
2023/12/06 03:03:39;;;;;;;19.73;14.03;;;5.50;99.90;;;;;;4941377;28;36496;-76
2023/12/06 03:06:06;;;;;;;16.93;13.07;;;5.50;99.90;;;;;;4956168;28;39205;-77
2023/12/06 03:08:34;;;;;;;18.80;13.43;;;5.50;99.90;;;;;;4959835;28;39478;-77
2023/12/06 03:11:00;;;;;;;16.57;13.20;;;5.50;99.90;;;;;;4944605;28;38054;-76
2023/12/06 03:13:27;;;;;;;15.03;12.10;;;5.50;99.90;;;;;;4942775;28;46928;-76
2023/12/06 03:15:53;;;;;;;15.27;11.57;;;5.50;99.90;;;;;;4945614;28;37472;-75
2023/12/06 03:18:19;;;;;;;13.83;10.83;;;5.50;99.90;;;;;;4941145;28;39175;-75
2023/12/06 03:20:45;;;;;;;16.80;10.70;;;5.50;99.90;;;;;;4941460;28;38258;-77
2023/12/06 03:23:11;;;;;;;17.90;11.40;;;5.60;99.90;;;;;;4943690;28;36557;-77
2023/12/06 03:25:38;;;;;;;19.27;12.10;;;5.60;99.90;;;;;;4938782;28;37686;-77
2023/12/06 03:28:04;;;;;;;13.60;10.40;;;5.60;99.90;;;;;;4966895;28;39382;-76
2023/12/06 03:30:30;;;;;;;17.90;13.27;;;5.60;99.90;;;;;;4946780;28;37503;-77
2023/12/06 03:32:56;;;;;;;19.30;12.67;;;5.60;99.90;;;;;;4943900;28;36617;-76
2023/12/06 03:35:23;;;;;;;22.20;14.63;;;5.60;99.90;;;;;;4931382;28;37744;-75
2023/12/06 03:37:49;;;;;;;19.20;12.97;;;5.60;99.90;;;;;;4940825;28;38064;-76
2023/12/06 03:40:15;;;;;;;16.70;12.73;;;5.60;99.90;;;;;;4955235;28;38749;-75
2023/12/06 03:42:44;;;;;;;22.73;13.83;;;5.60;99.90;;;;;;4936942;28;36424;-76
2023/12/06 03:45:12;;;;;;;18.87;13.03;;;5.70;99.90;;;;;;4951858;28;39159;-75
2023/12/06 03:47:38;;;;;;;23.67;14.40;;;5.60;99.90;;;;;;4951583;28;39293;-75
2023/12/06 03:50:05;;;;;;;21.50;13.03;;;5.60;99.90;;;;;;4958719;28;37476;-75
2023/12/06 03:52:31;;;;;;;19.27;13.60;;;5.60;99.90;;;;;;4958187;28;38092;-75
2023/12/06 03:54:58;;;;;;;20.37;13.40;;;5.70;99.90;;;;;;4938649;28;41514;-74
2023/12/06 03:57:24;;;;;;;20.53;13.20;;;5.60;99.90;;;;;;4941422;28;39374;-76
2023/12/06 03:59:50;;;;;;;19.50;12.93;;;5.70;99.90;;;;;;4951014;28;38879;-75
2023/12/06 04:02:17;;;;;;;22.90;14.27;;;5.70;99.90;;;;;;4956021;28;37721;-75
2023/12/06 04:04:46;;;;;;;21.53;15.83;;;5.70;99.90;;;;;;4932831;28;37960;-75
2023/12/06 04:07:12;;;;;;;19.70;13.27;;;5.70;99.90;;;;;;4931414;28;39292;-75
2023/12/06 04:09:38;;;;;;;18.63;13.07;;;5.70;99.90;;;;;;4967214;28;38664;-76
2023/12/06 04:12:08;;;;;;;26.33;14.60;;;5.70;99.90;;;;;;4951133;28;37819;-75
2023/12/06 04:14:35;;;;;;;21.77;12.97;;;5.70;99.90;;;;;;4953673;28;38810;-75
2023/12/06 04:17:01;;;;;;;23.70;13.37;;;5.70;99.90;;;;;;4947655;28;39905;-74
2023/12/06 04:19:27;;;;;;;20.40;12.90;;;5.70;99.90;;;;;;4910600;28;47114;-75
2023/12/06 04:21:54;;;;;;;20.33;12.90;;;5.70;99.90;;;;;;4951056;28;38244;-76
2023/12/06 04:24:20;;;;;;;26.10;13.40;;;5.80;99.90;;;;;;4942109;28;39116;-75
2023/12/06 04:26:46;;;;;;;22.17;13.13;;;5.70;99.90;;;;;;4944418;28;39133;-75
2023/12/06 04:29:12;;;;;;;22.63;12.73;;;5.80;99.90;;;;;;4945025;28;38526;-76
2023/12/06 04:31:38;;;;;;;26.97;12.27;;;5.80;99.90;;;;;;4949536;28;38052;-76
2023/12/06 04:34:05;;;;;;;20.90;11.23;;;5.70;99.90;;;;;;4928848;28;39865;-76
2023/12/06 04:36:49;;;;;;;22.37;11.83;;;5.80;99.90;;;;;;4937700;28;40023;-75
2023/12/06 04:39:15;;;;;;;18.43;10.60;;;5.80;99.90;;;;;;4932306;28;38812;-75
2023/12/06 04:41:45;;;;;;;20.90;10.17;;;5.80;99.90;;;;;;4925777;28;36091;-77
2023/12/06 04:44:12;;;;;;;21.17;10.33;;;5.80;99.90;;;;;;4931108;28;38329;-75
2023/12/06 04:46:38;;;;;;;15.40;9.37;;;5.90;99.90;;;;;;4956779;28;39073;-76
2023/12/06 04:49:07;;;;;;;17.43;9.40;;;5.90;99.90;;;;;;4965182;28;38636;-75
2023/12/06 04:51:33;;;;;;;16.67;9.13;;;6.00;99.90;;;;;;4952458;28;37491;-75
2023/12/06 04:54:02;;;;;;;18.30;9.20;;;6.00;99.90;;;;;;4961408;28;37985;-75
2023/12/06 04:56:31;;;;;;;18.13;10.13;;;6.10;99.90;;;;;;4952768;28;49056;-75
2023/12/06 04:58:57;;;;;;;22.50;8.20;;;6.00;99.90;;;;;;4953638;28;40163;-76
2023/12/06 05:01:23;;;;;;;18.70;8.87;;;6.10;99.90;;;;;;4949033;28;38561;-75
2023/12/06 05:03:49;;;;;;;16.97;9.87;;;6.10;99.90;;;;;;4962225;28;37971;-75
2023/12/06 05:06:17;;;;;;;19.60;8.87;;;6.10;99.90;;;;;;4955736;28;39429;-74
2023/12/06 05:08:43;;;;;;;19.40;9.03;;;6.10;99.90;;;;;;4938313;28;37184;-75
2023/12/06 05:11:09;;;;;;;20.67;9.27;;;6.10;99.90;;;;;;4958101;28;38568;-76
2023/12/06 05:13:35;;;;;;;16.87;8.13;;;6.10;99.90;;;;;;4949118;28;39607;-74
2023/12/06 05:16:02;;;;;;;16.77;9.13;;;6.10;99.90;;;;;;4935765;28;37470;-74
2023/12/06 05:18:32;;;;;;;12.43;7.57;;;6.00;99.90;;;;;;4942844;28;37257;-75
2023/12/06 05:20:58;;;;;;;19.57;7.57;;;6.00;99.90;;;;;;4932884;28;36287;-75
2023/12/06 05:23:24;;;;;;;11.50;6.50;;;6.10;99.90;;;;;;4956304;28;38709;-76
2023/12/06 05:25:50;;;;;;;14.50;5.97;;;6.10;99.90;;;;;;4970367;28;38221;-75
2023/12/06 05:28:17;;;;;;;11.83;5.53;;;6.20;99.90;;;;;;4962836;28;37970;-75
2023/12/06 05:30:43;;;;;;;12.13;6.23;;;6.20;99.90;;;;;;4957879;28;38700;-76
2023/12/06 05:33:10;;;;;;;9.80;6.53;;;6.30;99.90;;;;;;4938751;28;37628;-76
2023/12/06 05:35:37;;;;;;;9.40;5.87;;;6.30;99.90;;;;;;4944666;28;39815;-74
2023/12/06 05:38:03;;;;;;;10.73;6.00;;;6.30;99.90;;;;;;4930864;28;37883;-76
2023/12/06 05:40:30;;;;;;;12.40;6.57;;;6.30;99.90;;;;;;4948023;28;36485;-76
2023/12/06 05:42:56;;;;;;;11.90;7.00;;;6.30;99.90;;;;;;4940360;28;38356;-76
2023/12/06 05:45:22;;;;;;;16.03;7.20;;;6.20;99.90;;;;;;4943356;28;37672;-76
2023/12/06 05:47:49;;;;;;;9.80;6.00;;;6.20;99.90;;;;;;4942804;28;38021;-76
2023/12/06 05:50:15;;;;;;;12.13;6.70;;;6.20;99.90;;;;;;4966055;28;38146;-75
2023/12/06 05:52:43;;;;;;;15.30;7.53;;;6.10;99.90;;;;;;4939038;28;37840;-76
2023/12/06 05:55:09;;;;;;;16.30;7.50;;;6.20;99.90;;;;;;4957578;28;39518;-75
2023/12/06 05:57:35;;;;;;;12.60;7.60;;;6.10;99.90;;;;;;4954343;28;43202;-74
2023/12/06 06:00:02;;;;;;;13.60;7.00;;;6.10;99.90;;;;;;4962871;28;36266;-75
2023/12/06 06:02:28;;;;;;;21.83;6.73;;;6.20;99.90;;;;;;4881815;28;1479597;-76
2023/12/06 06:04:54;;;;;;;15.70;6.90;;;6.20;99.90;;;;;;4937293;28;39385;-74
2023/12/06 06:07:24;;;;;;;11.43;7.23;;;6.10;99.90;;;;;;4949755;28;39581;-76
2023/12/06 06:09:52;;;;;;;16.40;7.97;;;6.10;99.90;;;;;;4931062;28;36963;-76
2023/12/06 06:12:36;;;;;;;12.27;7.33;;;6.20;99.90;;;;;;4944611;28;39682;-76
2023/12/06 06:15:08;;;;;;;14.70;7.20;;;6.10;99.90;;;;;;4946245;28;38985;-75
2023/12/06 06:17:35;;;;;;;13.35;7.35;;;6.20;99.90;;;;;;4950754;28;49614;-75
2023/12/06 06:20:06;;;;;;;14.77;7.13;;;6.10;99.90;;;;;;4934936;28;36140;-75
2023/12/06 06:22:32;;;;;;;18.70;7.67;;;6.10;99.90;;;;;;4941249;28;47058;-75
2023/12/06 06:24:58;;;;;;;19.80;7.00;;;6.10;99.90;;;;;;4957791;28;38753;-75
2023/12/06 06:27:25;;;;;;;15.47;6.83;;;6.00;99.90;;;;;;4948482;28;38366;-74
2023/12/06 06:29:51;;;;;;;16.90;6.83;;;6.00;99.90;;;;;;4968131;28;38904;-75
2023/12/06 06:32:17;;;;;;;13.53;6.57;;;6.00;99.90;;;;;;4928640;28;39733;-75
2023/12/06 06:34:43;;;;;;;14.17;7.87;;;5.90;99.90;;;;;;4963727;28;37965;-75
2023/12/06 06:37:09;;;;;;;17.07;7.13;;;5.90;99.90;;;;;;4932845;28;38499;-74
2023/12/06 06:39:35;;;;;;;14.10;6.60;;;5.90;99.90;;;;;;4947701;28;37496;-75
2023/12/06 06:42:01;;;;;;;14.50;7.13;;;5.80;99.90;;;;;;4932918;28;38857;-75
2023/12/06 06:44:29;;;;;;;15.47;8.57;;;5.80;99.90;;;;;;4962619;28;37878;-75
2023/12/06 06:46:56;;;;;;;19.37;9.13;;;5.80;99.90;;;;;;4933467;28;37414;-74
2023/12/06 06:49:22;;;;;;;16.00;8.77;;;5.80;99.90;;;;;;4961207;28;35910;-74
2023/12/06 06:51:48;;;;;;;13.13;7.37;;;5.80;99.90;;;;;;4932855;28;38841;-76
2023/12/06 06:54:14;;;;;;;14.83;6.87;;;5.80;99.90;;;;;;4948695;28;39030;-76
2023/12/06 06:56:40;;;;;;;16.13;6.90;;;5.80;99.90;;;;;;4951243;28;39939;-75
2023/12/06 06:59:07;;;;;;;10.53;6.70;;;5.80;99.90;;;;;;4940129;28;37280;-76
2023/12/06 07:01:33;;;;;;;12.57;7.03;;;5.70;99.90;;;;;;4941610;28;37975;-77
2023/12/06 07:03:59;;;;;;;12.37;6.93;;;5.70;99.90;;;;;;4936140;28;38095;-75
2023/12/06 07:06:25;;;;;;;14.83;7.30;;;5.60;99.90;;;;;;4918499;28;38256;-75
2023/12/06 07:08:52;;;;;;;15.37;7.33;;;5.50;99.90;;;;;;4965373;28;37992;-76
2023/12/06 07:11:18;;;;;;;18.07;7.60;;;5.50;99.90;;;;;;4931355;28;37269;-76
2023/12/06 07:13:44;;;;;;;16.30;7.80;;;5.40;99.90;;;;;;4936926;28;38786;-75
2023/12/06 07:16:10;;;;;;;15.63;8.40;;;5.40;99.90;;;;;;4930224;28;37649;-76
2023/12/06 07:18:36;;;;;;;15.60;8.23;;;5.30;99.90;;;;;;4943240;28;38881;-76
2023/12/06 07:21:03;;;;;;;15.40;8.37;;;5.30;99.90;;;;;;4943765;28;39684;-76
2023/12/06 07:23:29;;;;;;;16.50;7.83;;;5.30;99.90;;;;;;4929503;28;38251;-75
2023/12/06 07:25:55;;;;;;;15.07;7.97;;;5.20;99.90;;;;;;4930368;28;37516;-75
2023/12/06 07:28:22;;;;;;;15.30;8.80;;;5.20;99.90;;;;;;4947024;28;37188;-75
2023/12/06 07:30:48;;;;;;;14.90;8.67;;;5.10;99.90;;;;;;4972217;28;38748;-76
2023/12/06 07:33:20;;;;;;;15.83;8.47;;;5.10;99.90;;;;;;4958722;28;39845;-76
2023/12/06 07:35:49;;;;;;;19.25;8.63;;;5.10;99.90;;;;;;4962781;28;38690;-77
2023/12/06 07:38:15;;;;;;;25.50;9.23;;;5.00;99.90;;;;;;4958783;28;36597;-76
2023/12/06 07:40:42;;;;;;;19.30;9.13;;;5.00;99.90;;;;;;4952929;28;37740;-75
2023/12/06 07:43:08;;;;;;;18.83;9.53;;;5.00;99.90;;;;;;4961400;28;38231;-75
2023/12/06 07:45:34;;;;;;;19.97;8.90;;;5.10;99.90;;;;;;4957352;28;37915;-76
2023/12/06 07:48:02;;;;;;;13.70;8.37;;;5.10;99.90;;;;;;4973047;28;37707;-76
2023/12/06 07:50:28;;;;;;;16.73;8.60;;;5.10;99.90;;;;;;4960789;28;47307;-76
2023/12/06 07:52:55;;;;;;;12.00;7.60;;;5.20;99.90;;;;;;4963699;28;37909;-76
2023/12/06 07:55:22;;;;;;;13.37;7.53;;;5.30;99.90;;;;;;4972264;28;38296;-76
2023/12/06 07:57:48;;;;;;;14.07;7.03;;;5.40;99.90;;;;;;4953814;28;38751;-76
2023/12/06 08:00:15;;;;;;;11.83;7.60;;;5.50;99.90;;;;;;4953524;28;37697;-75
2023/12/06 08:02:42;;;;;;;10.23;5.93;;;5.60;99.90;;;;;;4965225;28;38361;-76
2023/12/06 08:05:12;;;;;;;13.83;6.13;;;5.70;99.90;;;;;;4958611;28;37208;-75
2023/12/06 08:07:39;;;;;;;10.70;6.07;;;5.70;99.90;;;;;;4954339;28;36383;-76
2023/12/06 08:10:08;;;;;;;13.23;6.10;;;5.80;99.90;;;;;;4953556;28;38309;-75
2023/12/06 08:12:34;;;;;;;20.43;7.20;;;5.80;99.90;;;;;;4987101;28;38430;-75
2023/12/06 08:15:03;;;;;;;9.93;6.00;;;5.90;99.90;;;;;;4959607;28;38501;-75
2023/12/06 08:17:30;;;;;;;14.93;5.90;;;6.00;99.90;;;;;;4958112;28;37297;-76
2023/12/06 08:19:56;;;;;;;12.33;6.43;;;6.00;99.90;;;;;;4964322;28;38360;-75
2023/12/06 08:22:22;;;;;;;8.23;5.37;;;6.10;99.90;;;;;;4969545;28;38791;-76
2023/12/06 08:24:50;;;;;;;11.33;5.70;;;6.10;99.90;;;;;;4961123;28;39319;-75
2023/12/06 08:27:17;;;;;;;11.57;5.10;;;6.10;99.90;;;;;;4953337;28;37744;-74
2023/12/06 08:29:43;;;;;;;12.50;5.40;;;6.10;99.90;;;;;;4963406;28;39187;-75
2023/12/06 08:32:09;;;;;;;7.20;4.57;;;6.10;99.90;;;;;;4968925;28;38927;-75
2023/12/06 08:34:35;;;;;;;11.10;5.80;;;6.10;99.90;;;;;;4954071;28;38627;-75
2023/12/06 08:37:02;;;;;;;10.13;5.63;;;6.10;99.90;;;;;;4972806;28;38135;-75
2023/12/06 08:39:29;;;;;;;11.70;4.97;;;6.20;99.90;;;;;;4969513;28;48757;-74
2023/12/06 08:41:55;;;;;;;13.50;5.00;;;6.30;99.90;;;;;;4954638;28;40522;-75
2023/12/06 08:44:21;;;;;;;11.90;4.77;;;6.40;99.90;;;;;;4972860;28;39276;-76
2023/12/06 08:46:47;;;;;;;15.77;4.97;;;6.40;99.90;;;;;;4952900;28;37738;-76
2023/12/06 08:49:13;;;;;;;9.90;4.87;;;6.50;99.90;;;;;;4965139;28;38997;-75
2023/12/06 08:51:39;;;;;;;10.03;4.67;;;6.50;99.90;;;;;;4953182;28;39410;-75
2023/12/06 08:54:06;;;;;;;9.90;4.10;;;6.60;99.90;;;;;;4970635;28;38193;-75
2023/12/06 08:56:32;;;;;;;12.13;5.17;;;6.60;99.90;;;;;;4963437;28;36406;-76
2023/12/06 08:58:58;;;;;;;9.13;5.33;;;6.60;99.90;;;;;;4946605;28;39167;-76
2023/12/06 09:01:24;;;;;;;9.67;4.80;;;6.70;99.90;;;;;;4969274;28;39759;-76
2023/12/06 09:03:50;;;;;;;11.50;5.60;;;6.70;99.90;;;;;;4948841;28;37743;-75
2023/12/06 09:06:17;;;;;;;13.53;4.70;;;6.70;99.90;;;;;;4952929;28;36092;-75
2023/12/06 09:08:43;;;;;;;11.90;5.23;;;6.70;99.90;;;;;;4958847;28;38825;-76
2023/12/06 09:11:09;;;;;;;15.00;5.47;;;6.80;99.90;;;;;;4968993;28;39920;-75
2023/12/06 09:13:35;;;;;;;11.93;5.10;;;6.80;99.90;;;;;;4973724;28;38696;-76
2023/12/06 09:16:01;;;;;;;10.53;5.40;;;6.80;99.90;;;;;;4957195;28;36842;-76
2023/12/06 09:18:32;;;;;;;12.77;4.60;;;6.80;99.90;;;;;;4963531;28;37776;-77
2023/12/06 09:20:59;;;;;;;11.70;5.60;;;6.80;99.90;;;;;;4971750;28;38825;-76
2023/12/06 09:23:26;;;;;;;13.30;6.20;;;6.90;99.90;;;;;;4966311;28;38727;-76
2023/12/06 09:25:52;;;;;;;10.20;5.00;;;7.00;99.90;;;;;;4962914;28;36307;-76
2023/12/06 09:28:18;;;;;;;9.47;5.27;;;7.00;99.90;;;;;;4956115;28;37779;-74
2023/12/06 09:30:44;;;;;;;8.97;5.40;;;7.00;99.90;;;;;;4956934;28;38031;-76
2023/12/06 09:33:10;;;;;;;12.70;5.63;;;7.00;99.90;;;;;;4971778;28;39106;-77
2023/12/06 09:35:36;;;;;;;10.20;5.90;;;7.00;99.90;;;;;;4974695;28;38402;-75
2023/12/06 09:38:02;;;;;;;11.77;6.17;;;7.00;99.90;;;;;;4969594;28;38568;-76
2023/12/06 09:40:28;;;;;;;13.07;6.47;;;7.00;99.90;;;;;;4971237;28;39934;-76
2023/12/06 09:43:00;;;;;;;12.00;6.30;;;7.00;99.90;;;;;;4964605;28;37981;-76
2023/12/06 09:45:27;;;;;;;13.35;5.57;;;7.00;99.90;;;;;;4948621;28;39190;-75
2023/12/06 09:47:55;;;;;;;10.63;6.00;;;7.00;99.90;;;;;;4967717;28;39999;-76
2023/12/06 09:50:22;;;;;;;14.43;6.23;;;7.00;99.90;;;;;;4944129;28;37880;-77
2023/12/06 09:52:54;;;;;;;9.03;4.87;;;6.90;99.90;;;;;;4972903;28;38999;-76
2023/12/06 09:55:24;;;;;;;10.87;6.30;;;6.90;99.90;;;;;;4972426;28;37241;-76
2023/12/06 09:57:51;;;;;;;13.30;6.17;;;6.80;99.90;;;;;;4962118;28;39169;-76
2023/12/06 10:00:18;;;;;;;10.50;5.57;;;6.90;99.90;;;;;;4956449;28;39040;-76
2023/12/06 10:02:54;;;;;;;9.13;4.90;;;6.90;99.90;;;;;;4972193;28;39528;-76
2023/12/06 10:05:24;;;;;;;7.37;3.90;;;6.90;99.90;;;;;;4941507;28;36488;-76
2023/12/06 10:07:50;;;;;;;8.73;4.47;;;7.00;99.90;;;;;;4964406;28;39748;-76
2023/12/06 10:10:18;;;;;;;6.57;4.00;;;7.10;99.90;;;;;;4960833;28;39213;-75
2023/12/06 10:12:57;;;;;;;8.73;4.23;;;7.20;99.90;;;;;;4955829;28;37506;-76
2023/12/06 10:15:37;;;;;;;8.83;3.70;;;7.20;99.90;;;;;;4954362;28;36141;-76
2023/12/06 10:18:04;;;;;;;8.73;4.17;;;7.40;99.90;;;;;;4940733;28;40670;-76
2023/12/06 10:20:30;;;;;;;9.97;4.50;;;7.50;99.90;;;;;;4953156;28;38824;-77
2023/12/06 10:22:56;;;;;;;12.67;4.00;;;7.70;99.90;;;;;;4971991;28;37523;-77
2023/12/06 10:25:22;;;;;;;10.67;4.17;;;7.80;99.90;;;;;;4969319;28;37685;-77
2023/12/06 10:27:49;;;;;;;11.27;4.40;;;7.80;99.90;;;;;;4968001;28;38795;-77
2023/12/06 10:30:21;;;;;;;8.73;4.37;;;7.80;99.90;;;;;;4955535;28;37543;-76
2023/12/06 10:32:48;;;;;;;8.27;4.90;;;7.70;99.90;;;;;;4968907;28;38789;-77
2023/12/06 10:35:15;;;;;;;11.10;4.87;;;7.70;99.90;;;;;;4962008;28;37786;-76
2023/12/06 10:37:42;;;;;;;7.63;3.47;;;7.70;99.90;;;;;;4972511;28;39987;-76
2023/12/06 10:40:12;;;;;;;6.20;3.67;;;7.60;98.10;;;;;;4940595;28;38305;-76
2023/12/06 10:42:48;;;;;;;5.90;3.13;;;7.50;97.70;;;;;;4946967;28;37262;-76
2023/12/06 10:45:15;;;;;;;6.47;3.23;;;7.40;97.40;;;;;;4970611;28;37357;-75
2023/12/06 10:47:47;;;;;;;7.70;3.40;;;7.40;99.50;;;;;;4971072;28;38540;-77
2023/12/06 10:50:15;;;;;;;10.23;3.40;;;7.40;99.90;;;;;;4972901;28;39069;-76
2023/12/06 10:52:42;;;;;;;7.13;2.80;;;7.40;99.40;;;;;;4965222;28;37937;-75
2023/12/06 10:55:09;;;;;;;7.83;2.90;;;7.40;94.20;;;;;;4954470;28;40306;-76
2023/12/06 10:57:37;;;;;;;6.90;3.13;;;7.40;93.50;;;;;;4970050;28;38398;-77
2023/12/06 11:00:05;;;;;;;5.50;3.10;;;7.40;95.80;;;;;;4972269;28;39819;-75
2023/12/06 11:02:31;;;;;;;7.03;3.13;;;7.40;96.70;;;;;;4963438;28;38453;-76
2023/12/06 11:05:05;;;;;;;6.67;3.40;;;7.50;97.00;;;;;;4953562;28;36830;-76
2023/12/06 11:07:34;;;;;;;6.50;3.27;;;7.50;95.30;;;;;;4971913;28;48862;-76
2023/12/06 11:10:26;;;;;;;6.63;2.80;;;7.60;91.70;;;;;;4959675;28;40709;-75
2023/12/06 11:13:09;;;;;;;5.50;2.80;;;7.60;86.60;;;;;;4954942;28;47552;-76
2023/12/06 11:16:16;;;;;;;6.93;2.63;;;7.60;92.50;;;;;;4982902;28;47387;-76
2023/12/06 11:18:51;;;;;;;8.10;2.73;;;7.60;73.90;;;;;;4928395;28;46838;-76
2023/12/06 11:21:23;;;;;;;5.77;3.33;;;7.60;83.60;;;;;;4970506;28;39848;-77
2023/12/06 11:23:50;;;;;;;8.47;4.30;;;7.50;86.10;;;;;;4952301;28;37741;-75
2023/12/06 11:26:16;;;;;;;7.90;4.50;;;7.40;93.90;;;;;;4984317;28;36196;-76
2023/12/06 11:28:43;;;;;;;8.37;4.87;;;7.50;99.90;;;;;;4949931;28;38874;-76
2023/12/06 11:31:14;;;;;;;7.97;4.90;;;7.50;99.90;;;;;;4956000;28;38561;-76
2023/12/06 11:33:41;;;;;;;9.30;4.70;;;7.60;99.90;;;;;;4949851;28;37723;-76
2023/12/06 11:36:16;;;;;;;11.57;5.73;;;7.70;99.90;;;;;;4974003;28;36253;-77
2023/12/06 11:38:43;;;;;;;10.67;4.33;;;7.70;99.90;;;;;;4953921;28;39840;-77
2023/12/06 11:41:15;;;;;;;7.77;4.50;;;7.80;99.90;;;;;;4956282;28;38104;-77
2023/12/06 11:43:50;;;;;;;9.90;4.82;;;7.80;99.90;;;;;;4959232;28;37596;-77
2023/12/06 11:46:17;;;;;;;10.50;4.03;;;7.80;99.90;;;;;;4956270;28;36258;-77
2023/12/06 11:48:50;;;;;;;8.37;3.97;;;7.90;99.90;;;;;;4966966;28;39218;-77
2023/12/06 11:51:21;;;;;;;;;;;8.00;99.90;;;;;;4959919;28;37874;-76
2023/12/06 11:53:49;;;;;;;7.20;3.47;;;8.10;99.90;;;;;;4968065;28;39711;-77
2023/12/06 11:56:26;;;;;;;5.77;3.07;;;8.20;99.90;;;;;;4955325;28;35493;-78
2023/12/06 11:58:53;;;;;;;7.00;3.50;;;8.20;99.90;;;;;;4986718;28;39108;-77
2023/12/06 12:01:19;;;;;;;8.20;3.40;;;8.30;99.90;;;;;;4961370;28;37857;-77
2023/12/06 12:03:50;;;;;;;7.63;4.20;;;8.50;99.90;;;;;;4952885;28;38927;-78
2023/12/06 12:06:19;;;;;;;7.30;3.53;;;8.60;99.90;;;;;;4974848;28;38098;-78
2023/12/06 12:08:49;;;;;;;5.87;3.17;;;8.70;99.90;;;;;;4972647;28;38616;-77
2023/12/06 12:11:17;;;;;;;6.10;3.47;;;8.60;99.90;;;;;;4965846;28;38645;-78
2023/12/06 12:13:43;;;;;;;9.77;4.13;;;8.80;99.90;;;;;;4954339;28;39089;-77
2023/12/06 12:16:15;;;;;;;6.00;3.07;;;8.80;99.90;;;;;;4957830;28;36160;-78
2023/12/06 12:18:42;;;;;;;8.32;3.08;;;8.80;99.90;;;;;;4957113;28;37683;-77
2023/12/06 12:21:16;;;;;;;9.27;2.97;;;8.70;99.90;;;;;;4960339;28;39085;-78
2023/12/06 12:23:43;;;;;;;7.27;3.20;;;8.70;99.90;;;;;;4960893;28;37430;-77
2023/12/06 12:26:13;;;;;;;5.83;2.50;;;8.80;99.90;;;;;;4960442;28;37527;-77
2023/12/06 12:28:43;;;;;;;5.67;2.37;;;8.80;99.90;;;;;;4976779;28;37808;-78
2023/12/06 12:31:18;;;;;;;6.60;2.77;;;8.80;99.90;;;;;;4961370;28;37977;-78
2023/12/06 12:33:45;;;;;;;6.83;2.90;;;8.70;99.90;;;;;;4957468;28;39135;-78
2023/12/06 12:36:12;;;;;;;6.10;3.20;;;8.70;99.90;;;;;;4965923;28;36062;-77
2023/12/06 12:38:38;;;;;;;7.60;3.00;;;8.60;99.90;;;;;;4961449;28;38006;-76
2023/12/06 12:41:09;;;;;;;7.90;3.00;;;8.50;99.90;;;;;;4949840;28;38586;-77
2023/12/06 12:43:35;;;;;;;6.07;3.07;;;8.30;99.90;;;;;;4966004;28;39689;-76
2023/12/06 12:46:07;;;;;;;8.00;2.73;;;8.20;99.90;;;;;;4979836;28;37498;-76
2023/12/06 12:48:37;;;;;;;4.93;2.50;;;8.30;99.90;;;;;;4955469;28;47111;-78